createdAt,value
2023-05-05T00:02:16.622Z,14.00
2023-05-05T00:04:46.020Z,14.00
2023-05-05T00:07:12.927Z,13.90
2023-05-05T00:09:39.843Z,13.90
2023-05-05T00:12:07.202Z,13.90
2023-05-05T00:14:38.668Z,13.90
2023-05-05T00:17:08.080Z,13.80
2023-05-05T00:19:35.064Z,13.70
2023-05-05T00:22:01.886Z,13.70
2023-05-05T00:24:28.696Z,13.70
2023-05-05T00:26:55.468Z,13.70
2023-05-05T00:29:22.248Z,13.60
2023-05-05T00:31:50.808Z,13.60
2023-05-05T00:34:17.675Z,13.60
2023-05-05T00:36:46.941Z,13.60
2023-05-05T00:39:14.152Z,13.60
2023-05-05T00:41:43.478Z,13.60
2023-05-05T00:44:10.252Z,13.50
2023-05-05T00:46:43.287Z,13.50
2023-05-05T00:49:12.188Z,13.50
2023-05-05T00:51:39.033Z,13.40
2023-05-05T00:54:05.894Z,13.50
2023-05-05T00:56:37.367Z,13.40
2023-05-05T00:59:06.761Z,13.40
2023-05-05T01:01:33.735Z,13.40
2023-05-05T01:04:03.043Z,13.40
2023-05-05T01:06:33.019Z,13.40
2023-05-05T01:09:04.278Z,13.40
2023-05-05T01:11:35.582Z,13.40
2023-05-05T01:14:05.673Z,13.30
2023-05-05T01:16:34.351Z,13.20
2023-05-05T01:19:18.952Z,13.20
2023-05-05T01:21:53.494Z,13.20
2023-05-05T01:24:22.632Z,13.20
2023-05-05T01:26:52.558Z,13.20
2023-05-05T01:29:28.593Z,13.10
2023-05-05T01:31:57.671Z,13.10
2023-05-05T01:34:28.750Z,13.10
2023-05-05T01:37:05.507Z,13.10
2023-05-05T01:39:33.854Z,13.10
2023-05-05T01:42:04.472Z,13.00
2023-05-05T01:44:34.652Z,13.00
2023-05-05T01:47:01.689Z,13.00
2023-05-05T01:49:28.765Z,13.00
2023-05-05T01:51:58.904Z,12.90
2023-05-05T01:54:26.210Z,12.90
2023-05-05T01:56:55.137Z,13.00
2023-05-05T01:59:24.378Z,12.90
2023-05-05T02:01:54.057Z,12.90
2023-05-05T02:04:22.861Z,12.90
2023-05-05T02:06:51.608Z,12.90
2023-05-05T02:09:22.124Z,12.90
2023-05-05T02:11:53.926Z,13.00
2023-05-05T02:14:21.889Z,12.90
2023-05-05T02:16:48.916Z,12.90
2023-05-05T02:19:16.058Z,12.90
2023-05-05T02:21:42.884Z,12.90
2023-05-05T02:24:12.229Z,12.80
2023-05-05T02:26:40.193Z,12.80
2023-05-05T02:29:27.265Z,12.70
2023-05-05T02:31:55.752Z,12.70
2023-05-05T02:34:27.759Z,12.70
2023-05-05T02:37:00.821Z,12.60
2023-05-05T02:39:32.237Z,12.60
2023-05-05T02:42:03.888Z,12.50
2023-05-05T02:44:32.925Z,12.50
2023-05-05T02:47:02.476Z,12.40
2023-05-05T02:49:30.126Z,12.40
2023-05-05T02:52:02.298Z,12.40
2023-05-05T02:54:33.847Z,12.40
2023-05-05T02:57:04.049Z,12.30
2023-05-05T02:59:42.980Z,12.30
2023-05-05T03:02:20.069Z,12.30
2023-05-05T03:04:49.297Z,12.30
2023-05-05T03:07:26.387Z,12.20
2023-05-05T03:10:03.231Z,12.30
2023-05-05T03:12:37.479Z,12.30
2023-05-05T03:15:22.217Z,12.30
2023-05-05T03:17:50.757Z,12.20
2023-05-05T03:20:17.808Z,12.20
2023-05-05T03:22:47.920Z,12.30
2023-05-05T03:25:18.039Z,12.30
2023-05-05T03:27:44.998Z,12.20
2023-05-05T03:30:14.763Z,12.20
2023-05-05T03:32:48.453Z,12.10
2023-05-05T03:35:15.840Z,12.10
2023-05-05T03:37:42.621Z,12.10
2023-05-05T03:40:10.581Z,12.10
2023-05-05T03:42:37.372Z,12.10
2023-05-05T03:45:04.534Z,12.10
2023-05-05T03:47:31.548Z,12.10
2023-05-05T03:49:58.369Z,12.00
2023-05-05T03:52:25.551Z,12.00
2023-05-05T03:54:54.991Z,11.90
2023-05-05T03:57:23.983Z,11.90
2023-05-05T03:59:51.029Z,11.90
2023-05-05T04:02:18.890Z,11.80
2023-05-05T04:04:48.749Z,11.90
2023-05-05T04:07:15.574Z,11.80
2023-05-05T04:09:44.607Z,11.80
2023-05-05T04:12:15.463Z,11.70
2023-05-05T04:14:42.284Z,11.70
2023-05-05T04:17:10.830Z,11.70
2023-05-05T04:19:38.097Z,11.70
2023-05-05T04:22:05.864Z,11.80
2023-05-05T04:24:32.848Z,11.80
2023-05-05T04:26:59.758Z,11.80
2023-05-05T04:29:30.870Z,11.80
2023-05-05T04:31:58.213Z,11.70
2023-05-05T04:34:24.981Z,11.80
2023-05-05T04:36:52.132Z,11.80
2023-05-05T04:39:19.977Z,11.80
2023-05-05T04:41:46.963Z,11.70
2023-05-05T04:44:14.319Z,11.70
2023-05-05T04:46:44.130Z,11.70
2023-05-05T04:49:13.637Z,11.80
2023-05-05T04:51:43.503Z,11.70
2023-05-05T04:54:10.448Z,11.70
2023-05-05T04:56:37.318Z,11.80
2023-05-05T04:59:04.135Z,11.80
2023-05-05T05:01:31.729Z,11.80
2023-05-05T05:04:01.648Z,11.80
2023-05-05T05:06:29.319Z,11.80
2023-05-05T05:08:56.920Z,11.90
2023-05-05T05:11:23.735Z,11.90
2023-05-05T05:13:53.000Z,11.90
2023-05-05T05:16:22.267Z,12.00
2023-05-05T05:18:49.080Z,12.00
2023-05-05T05:21:16.210Z,12.00
2023-05-05T05:23:43.760Z,12.00
2023-05-05T05:26:11.044Z,12.10
2023-05-05T05:28:41.622Z,12.20
2023-05-05T05:31:08.398Z,12.10
2023-05-05T05:33:35.121Z,12.20
2023-05-05T05:36:02.234Z,12.20
2023-05-05T05:38:31.383Z,12.20
2023-05-05T05:41:04.859Z,12.20
2023-05-05T05:43:31.748Z,12.30
2023-05-05T05:45:58.580Z,12.20
2023-05-05T05:48:29.452Z,12.20
2023-05-05T05:50:57.995Z,12.20
2023-05-05T05:53:25.956Z,12.30
2023-05-05T05:55:54.098Z,12.40
2023-05-05T05:58:25.548Z,12.40
2023-05-05T06:00:52.705Z,12.50
2023-05-05T06:03:21.955Z,12.60
2023-05-05T06:05:50.399Z,12.60
2023-05-05T06:08:18.293Z,12.60
2023-05-05T06:10:50.441Z,12.60
2023-05-05T06:13:21.916Z,12.70
2023-05-05T06:15:52.221Z,12.70
2023-05-05T06:18:20.361Z,12.80
2023-05-05T06:20:50.597Z,12.90
2023-05-05T06:23:21.269Z,13.10
2023-05-05T06:25:56.330Z,13.20
2023-05-05T06:28:28.001Z,13.30
2023-05-05T06:30:57.237Z,13.30
2023-05-05T06:33:28.792Z,13.40
2023-05-05T06:35:55.817Z,13.50
2023-05-05T06:38:22.764Z,13.50
2023-05-05T06:40:49.970Z,13.50
2023-05-05T06:43:19.457Z,13.70
2023-05-05T06:45:53.297Z,13.70
2023-05-05T06:48:20.150Z,13.80
2023-05-05T06:50:49.233Z,13.90
2023-05-05T06:53:16.205Z,13.90
2023-05-05T06:55:45.884Z,13.80
2023-05-05T06:58:15.306Z,13.80
2023-05-05T07:00:42.770Z,13.70
2023-05-05T07:03:12.008Z,13.70
2023-05-05T07:05:39.122Z,13.70
2023-05-05T07:08:06.821Z,13.70
2023-05-05T07:10:33.705Z,13.80
2023-05-05T07:13:00.730Z,13.80
2023-05-05T07:15:30.679Z,13.80
2023-05-05T07:17:59.877Z,13.80
2023-05-05T07:20:28.345Z,13.80
2023-05-05T07:22:56.897Z,13.90
2023-05-05T07:25:23.977Z,14.00
2023-05-05T07:27:51.170Z,14.10
2023-05-05T07:30:19.115Z,14.10
2023-05-05T07:32:46.742Z,14.20
2023-05-05T07:35:14.005Z,14.30
2023-05-05T07:37:43.119Z,14.40
2023-05-05T07:40:10.784Z,14.50
2023-05-05T07:42:45.986Z,14.50
2023-05-05T07:45:12.988Z,14.50
2023-05-05T07:47:40.612Z,14.50
2023-05-05T07:50:10.823Z,14.60
2023-05-05T07:52:48.360Z,14.70
2023-05-05T07:55:19.013Z,14.80
2023-05-05T07:57:46.375Z,14.90
2023-05-05T08:00:14.320Z,15.00
2023-05-05T08:02:41.648Z,15.10
2023-05-05T08:05:09.687Z,15.20
2023-05-05T08:07:43.581Z,15.20
2023-05-05T08:10:12.428Z,15.40
2023-05-05T08:12:42.100Z,15.50
2023-05-05T08:15:10.253Z,15.60
2023-05-05T08:17:59.970Z,15.70
2023-05-05T08:20:29.053Z,16.10
2023-05-05T08:23:00.932Z,16.60
2023-05-05T08:25:32.764Z,17.00
2023-05-05T08:28:02.232Z,17.40
2023-05-05T08:30:29.437Z,17.80
2023-05-05T08:32:56.765Z,19.00
2023-05-05T08:35:24.436Z,20.10
2023-05-05T08:37:51.941Z,21.00
2023-05-05T08:40:21.255Z,21.70
2023-05-05T08:42:48.440Z,22.40
2023-05-05T08:45:18.213Z,22.50
2023-05-05T08:47:45.617Z,22.60
2023-05-05T08:50:12.946Z,22.20
2023-05-05T08:52:44.386Z,22.60
2023-05-05T08:55:37.197Z,23.00
2023-05-05T08:58:04.752Z,23.10
2023-05-05T09:00:32.338Z,23.30
2023-05-05T09:03:00.450Z,23.30
2023-05-05T09:05:27.524Z,23.90
2023-05-05T09:07:54.920Z,23.90
2023-05-05T09:10:22.146Z,24.20
2023-05-05T09:12:51.131Z,24.60
2023-05-05T09:15:18.226Z,24.80
2023-05-05T09:17:47.566Z,24.80
2023-05-05T09:20:18.378Z,24.50
2023-05-05T09:22:47.536Z,24.30
2023-05-05T09:25:18.797Z,24.60
2023-05-05T09:27:48.211Z,24.70
2023-05-05T09:30:23.977Z,24.80
2023-05-05T09:32:56.868Z,24.40
2023-05-05T09:35:26.545Z,23.90
2023-05-05T09:37:56.692Z,24.10
2023-05-05T09:40:23.870Z,23.90
2023-05-05T09:43:01.764Z,23.10
2023-05-05T09:45:31.101Z,23.50
2023-05-05T09:48:00.308Z,23.80
2023-05-05T09:50:30.757Z,24.00
2023-05-05T09:52:59.863Z,23.30
2023-05-05T09:55:27.045Z,22.80
2023-05-05T09:58:27.202Z,22.20
2023-05-05T10:00:56.038Z,21.80
2023-05-05T10:03:24.504Z,21.40
2023-05-05T10:05:57.895Z,21.40
2023-05-05T10:08:34.432Z,21.60
2023-05-05T10:11:06.473Z,21.30
2023-05-05T10:13:42.085Z,21.30
2023-05-05T10:17:20.097Z,21.20
2023-05-05T10:19:47.737Z,21.20
2023-05-05T10:22:14.811Z,21.00
2023-05-05T10:24:44.234Z,21.10
2023-05-05T10:31:25.820Z,20.70
2023-05-05T10:34:00.467Z,20.50
2023-05-05T10:36:31.695Z,20.20
2023-05-05T10:39:00.202Z,20.40
2023-05-05T10:41:31.397Z,20.50
2023-05-05T10:44:00.920Z,20.50
2023-05-05T10:46:33.480Z,20.40
2023-05-05T10:49:20.353Z,20.30
2023-05-05T10:51:55.893Z,20.40
2023-05-05T10:54:38.259Z,20.40
2023-05-05T10:57:09.727Z,20.50
2023-05-05T10:59:41.071Z,20.40
2023-05-05T11:02:28.073Z,20.40
2023-05-05T11:05:15.421Z,20.50
2023-05-05T11:07:44.099Z,20.60
2023-05-05T11:10:13.077Z,20.60
2023-05-05T11:12:52.245Z,21.20
2023-05-05T11:15:28.872Z,21.00
2023-05-05T11:18:06.792Z,20.80
2023-05-05T11:20:40.188Z,20.60
2023-05-05T11:23:07.348Z,20.70
2023-05-05T11:25:37.636Z,20.70
2023-05-05T11:28:10.191Z,20.80
2023-05-05T11:30:58.069Z,20.80
2023-05-05T11:33:40.497Z,20.70
2023-05-05T11:36:12.415Z,20.80
2023-05-05T11:38:39.551Z,20.80
2023-05-05T11:41:12.901Z,20.70
2023-05-05T11:43:43.572Z,20.90
2023-05-05T11:46:16.968Z,20.90
2023-05-05T11:48:52.916Z,20.90
2023-05-05T11:51:20.357Z,21.00
2023-05-05T11:53:48.700Z,21.00
2023-05-05T11:56:21.780Z,21.20
2023-05-05T11:58:49.764Z,21.40
2023-05-05T12:01:19.514Z,21.60
2023-05-05T12:03:46.692Z,21.60
2023-05-05T12:06:13.872Z,21.50
2023-05-05T12:08:43.965Z,21.50
2023-05-05T12:11:13.732Z,21.20
2023-05-05T12:13:41.633Z,21.20
2023-05-05T12:16:13.502Z,21.20
2023-05-05T12:18:41.167Z,21.80
2023-05-05T12:21:20.804Z,22.00
2023-05-05T12:23:47.957Z,21.80
2023-05-05T12:26:41.253Z,21.60
2023-05-05T12:29:08.430Z,21.60
2023-05-05T12:31:41.871Z,21.50
2023-05-05T12:34:11.029Z,21.40
2023-05-05T12:36:38.820Z,21.50
2023-05-05T12:39:06.203Z,21.50
2023-05-05T12:41:34.263Z,21.50
2023-05-05T12:44:03.169Z,21.40
2023-05-05T12:46:32.404Z,21.50
2023-05-05T12:49:06.068Z,21.60
2023-05-05T12:51:37.157Z,21.70
2023-05-05T12:54:08.334Z,21.60
2023-05-05T12:56:46.406Z,21.70
2023-05-05T12:59:22.573Z,21.70
2023-05-05T13:01:50.208Z,21.50
2023-05-05T13:04:18.143Z,21.30
2023-05-05T13:06:46.924Z,21.40
2023-05-05T13:09:28.144Z,21.40
2023-05-05T13:11:57.875Z,21.40
2023-05-05T13:14:26.873Z,21.40
2023-05-05T13:16:53.994Z,21.40
2023-05-05T13:19:21.095Z,21.40
2023-05-05T13:21:48.120Z,21.40
2023-05-05T13:24:25.927Z,21.40
2023-05-05T13:26:56.581Z,21.40
2023-05-05T13:29:30.440Z,21.30
2023-05-05T13:31:58.584Z,21.30
2023-05-05T13:34:25.992Z,21.30
2023-05-05T13:36:55.320Z,21.30
2023-05-05T13:39:22.326Z,21.30
2023-05-05T13:41:49.326Z,21.40
2023-05-05T13:44:18.596Z,21.30
2023-05-05T13:46:45.796Z,21.40
2023-05-05T13:49:14.759Z,21.80
2023-05-05T13:51:41.854Z,23.40
2023-05-05T13:54:14.405Z,24.80
2023-05-05T13:56:41.654Z,25.20
2023-05-05T13:59:10.717Z,25.70
2023-05-05T14:01:37.996Z,27.80
2023-05-05T14:04:07.516Z,29.00
2023-05-05T14:06:36.974Z,29.90
2023-05-05T14:09:05.984Z,30.90
2023-05-05T14:11:33.238Z,31.30
2023-05-05T14:14:00.181Z,31.40
2023-05-05T14:16:27.121Z,31.40
2023-05-05T14:18:54.114Z,31.00
2023-05-05T14:21:21.059Z,31.10
2023-05-05T14:23:47.931Z,30.90
2023-05-05T14:26:15.142Z,29.80
2023-05-05T14:28:42.255Z,28.80
2023-05-05T14:31:09.438Z,28.10
2023-05-05T14:33:38.832Z,27.30
2023-05-05T14:36:06.116Z,26.70
2023-05-05T14:38:33.012Z,25.70
2023-05-05T14:41:02.173Z,25.10
2023-05-05T14:43:29.151Z,24.30
2023-05-05T14:45:58.249Z,24.10
2023-05-05T14:48:28.169Z,24.10
2023-05-05T14:50:55.302Z,23.80
2023-05-05T14:53:24.518Z,23.50
2023-05-05T14:55:51.418Z,23.50
2023-05-05T14:58:22.247Z,23.40
2023-05-05T15:00:49.118Z,23.40
2023-05-05T15:03:16.092Z,23.30
2023-05-05T15:05:43.028Z,23.10
2023-05-05T15:08:12.473Z,22.90
2023-05-05T15:10:39.299Z,23.70
2023-05-05T15:13:09.121Z,24.20
2023-05-05T15:15:36.108Z,24.00
2023-05-05T15:18:03.092Z,23.60
2023-05-05T15:20:32.486Z,23.20
2023-05-05T15:22:59.385Z,23.00
2023-05-05T15:25:26.270Z,22.70
2023-05-05T15:27:53.244Z,22.40
2023-05-05T15:30:20.274Z,22.20
2023-05-05T15:32:50.244Z,22.00
2023-05-05T15:35:17.154Z,21.80
2023-05-05T15:37:44.101Z,21.60
2023-05-05T15:40:11.683Z,21.50
2023-05-05T15:42:40.713Z,21.40
2023-05-05T15:45:13.133Z,21.50
2023-05-05T15:47:40.054Z,21.30
2023-05-05T15:50:09.738Z,21.20
2023-05-05T15:52:36.834Z,21.00
2023-05-05T15:55:04.200Z,20.80
2023-05-05T15:57:33.410Z,20.50
2023-05-05T16:00:02.462Z,20.50
2023-05-05T16:02:34.690Z,20.40
2023-05-05T16:05:02.061Z,20.30
2023-05-05T16:07:29.090Z,20.30
2023-05-05T16:09:56.920Z,20.20
2023-05-05T16:12:23.877Z,20.10
2023-05-05T16:14:50.912Z,20.10
2023-05-05T16:17:21.026Z,20.00
2023-05-05T16:19:51.443Z,20.00
2023-05-05T16:22:18.414Z,20.00
2023-05-05T16:24:45.314Z,19.90
2023-05-05T16:27:12.264Z,19.90
2023-05-05T16:29:39.162Z,19.80
2023-05-05T16:32:08.500Z,19.60
2023-05-05T16:34:35.450Z,19.60
2023-05-05T16:37:02.433Z,19.60
2023-05-05T16:39:33.017Z,19.60
2023-05-05T16:42:02.833Z,19.60
2023-05-05T16:44:31.903Z,19.50
2023-05-05T16:46:58.796Z,19.50
2023-05-05T16:49:30.366Z,19.50
2023-05-05T16:51:57.242Z,19.40
2023-05-05T16:54:26.207Z,19.40
2023-05-05T16:56:53.700Z,19.30
2023-05-05T16:59:20.716Z,19.20
2023-05-05T17:01:49.912Z,19.20
2023-05-05T17:04:17.057Z,19.10
2023-05-05T17:06:43.974Z,19.10
2023-05-05T17:09:10.862Z,19.00
2023-05-05T17:11:39.978Z,19.00
2023-05-05T17:14:06.954Z,18.90
2023-05-05T17:16:36.003Z,18.90
2023-05-05T17:19:02.901Z,18.90
2023-05-05T17:21:32.818Z,18.90
2023-05-05T17:23:59.775Z,18.80
2023-05-05T17:26:30.598Z,18.80
2023-05-05T17:28:57.460Z,18.70
2023-05-05T17:31:24.368Z,18.70
2023-05-05T17:33:51.273Z,18.70
2023-05-05T17:36:18.154Z,18.70
2023-05-05T17:38:47.310Z,18.60
2023-05-05T17:41:14.224Z,18.60
2023-05-05T17:43:41.117Z,18.50
2023-05-05T17:46:10.246Z,18.40
2023-05-05T17:48:37.149Z,18.30
2023-05-05T17:51:04.166Z,18.30
2023-05-05T17:53:31.099Z,18.30
2023-05-05T17:55:58.002Z,18.30
2023-05-05T17:58:25.045Z,18.20
2023-05-05T18:00:56.430Z,18.20
2023-05-05T18:03:25.697Z,18.20
2023-05-05T18:05:52.646Z,18.10
2023-05-05T18:08:19.826Z,18.00
2023-05-05T18:10:46.843Z,18.00
2023-05-05T18:13:16.402Z,18.00
2023-05-05T18:15:43.373Z,17.90
2023-05-05T18:18:12.527Z,17.80
2023-05-05T18:20:39.389Z,17.80
2023-05-05T18:23:06.294Z,17.70
2023-05-05T18:25:38.330Z,17.70
2023-05-05T18:28:05.575Z,17.70
2023-05-05T18:30:32.882Z,17.60
2023-05-05T18:33:00.198Z,17.60
2023-05-05T18:35:28.090Z,17.60
2023-05-05T18:37:55.129Z,17.60
2023-05-05T18:40:22.557Z,17.60
2023-05-05T18:42:49.700Z,17.50
2023-05-05T18:45:16.708Z,17.40
2023-05-05T18:47:43.774Z,17.30
2023-05-05T18:50:11.120Z,17.30
2023-05-05T18:52:40.590Z,17.40
2023-05-05T18:55:08.010Z,17.30
2023-05-05T18:57:35.308Z,17.30
2023-05-05T19:00:02.259Z,17.20
2023-05-05T19:02:29.302Z,17.10
2023-05-05T19:04:56.261Z,17.00
2023-05-05T19:07:34.266Z,17.00
2023-05-05T19:10:13.116Z,17.00
2023-05-05T19:12:44.475Z,16.90
2023-05-05T19:15:13.094Z,16.90
2023-05-05T19:17:42.153Z,16.80
2023-05-05T19:20:11.840Z,16.90
2023-05-05T19:22:38.822Z,16.80
2023-05-05T19:25:06.139Z,16.70
2023-05-05T19:27:33.938Z,16.70
2023-05-05T19:30:00.843Z,16.50
2023-05-05T19:32:27.768Z,16.40
2023-05-05T19:34:57.745Z,16.40
2023-05-05T19:37:25.135Z,16.40
2023-05-05T19:39:52.097Z,16.30
2023-05-05T19:42:19.069Z,16.30
2023-05-05T19:44:45.943Z,16.30
2023-05-05T19:47:12.905Z,16.30
2023-05-05T19:49:41.838Z,16.30
2023-05-05T19:52:08.781Z,16.30
2023-05-05T19:54:36.728Z,16.30
2023-05-05T19:57:03.686Z,16.10
2023-05-05T19:59:30.591Z,16.10
2023-05-05T20:01:57.723Z,16.10
2023-05-05T20:04:24.642Z,16.10
2023-05-05T20:06:57.304Z,16.10
2023-05-05T20:09:24.160Z,16.00
2023-05-05T20:11:51.116Z,16.00
2023-05-05T20:14:18.061Z,16.00
2023-05-05T20:16:45.292Z,15.90
2023-05-05T20:19:12.125Z,16.00
2023-05-05T20:21:39.150Z,16.00
2023-05-05T20:24:06.764Z,16.00
2023-05-05T20:26:33.668Z,16.00
2023-05-05T20:29:03.136Z,16.00
2023-05-05T20:31:30.237Z,16.00
2023-05-05T20:33:57.133Z,15.90
2023-05-05T20:36:26.601Z,15.90
2023-05-05T20:38:56.125Z,15.90
2023-05-05T20:41:25.688Z,15.80
2023-05-05T20:43:52.586Z,15.80
2023-05-05T20:46:19.508Z,15.70
2023-05-05T20:48:48.711Z,15.60
2023-05-05T20:51:15.696Z,15.70
2023-05-05T20:53:42.752Z,15.60
2023-05-05T20:56:09.689Z,15.50
2023-05-05T20:58:38.838Z,15.40
2023-05-05T21:01:06.164Z,15.40
2023-05-05T21:03:33.347Z,15.30
2023-05-05T21:06:01.448Z,15.30
2023-05-05T21:08:30.016Z,15.30
2023-05-05T21:10:56.918Z,15.30
2023-05-05T21:13:23.987Z,15.30
2023-05-05T21:15:52.928Z,15.20
2023-05-05T21:18:21.935Z,15.30
2023-05-05T21:20:48.810Z,15.30
2023-05-05T21:23:15.675Z,15.30
2023-05-05T21:25:42.686Z,15.20
2023-05-05T21:28:09.712Z,15.20
2023-05-05T21:30:39.121Z,15.20
2023-05-05T21:33:06.154Z,15.20
2023-05-05T21:35:35.498Z,15.10
2023-05-05T21:38:02.475Z,15.10
2023-05-05T21:40:29.440Z,15.10
2023-05-05T21:43:01.401Z,15.00
2023-05-05T21:45:28.566Z,14.90
2023-05-05T21:47:55.489Z,15.00
2023-05-05T21:50:23.176Z,15.10
2023-05-05T21:52:50.301Z,15.00
2023-05-05T21:55:17.251Z,15.00
2023-05-05T21:57:49.142Z,14.90
2023-05-05T22:00:18.651Z,14.90
2023-05-05T22:02:48.032Z,14.90
2023-05-05T22:05:15.091Z,14.90
2023-05-05T22:07:44.734Z,14.80
2023-05-05T22:10:11.838Z,14.70
2023-05-05T22:12:39.067Z,14.60
2023-05-05T22:15:06.772Z,14.60
2023-05-05T22:17:36.407Z,14.50
2023-05-05T22:20:08.684Z,14.50
2023-05-05T22:22:35.912Z,14.30
2023-05-05T22:25:02.848Z,14.30
2023-05-05T22:27:29.775Z,14.10
2023-05-05T22:29:56.740Z,14.00
2023-05-05T22:32:23.706Z,14.00
2023-05-05T22:34:50.838Z,13.90
2023-05-05T22:37:17.778Z,13.80
2023-05-05T22:39:44.618Z,13.80
2023-05-05T22:42:11.658Z,13.80
2023-05-05T22:44:41.082Z,13.80
2023-05-05T22:47:09.116Z,13.80
2023-05-05T22:49:36.138Z,13.80
2023-05-05T22:52:05.312Z,13.80
2023-05-05T22:54:32.193Z,13.70
2023-05-05T22:56:59.139Z,13.80
2023-05-05T22:59:25.926Z,13.70
2023-05-05T23:01:52.892Z,13.80
2023-05-05T23:04:20.350Z,13.80
2023-05-05T23:06:47.278Z,13.70
2023-05-05T23:09:16.550Z,13.60
2023-05-05T23:11:43.289Z,13.50
2023-05-05T23:14:10.484Z,13.40
2023-05-05T23:16:37.264Z,13.30
2023-05-05T23:19:06.335Z,13.30
2023-05-05T23:21:36.215Z,13.20
2023-05-05T23:24:09.050Z,13.10
2023-05-05T23:26:38.322Z,13.00
2023-05-05T23:29:05.538Z,13.00
2023-05-05T23:31:32.357Z,13.00
2023-05-05T23:33:59.111Z,13.00
2023-05-05T23:36:26.548Z,12.80
2023-05-05T23:38:58.194Z,12.60
2023-05-05T23:41:24.947Z,12.50
2023-05-05T23:43:51.683Z,12.40
2023-05-05T23:46:18.513Z,12.40
2023-05-05T23:48:45.330Z,12.40
2023-05-05T23:51:14.246Z,12.40
2023-05-05T23:53:41.136Z,12.30
2023-05-05T23:56:08.237Z,12.30
2023-05-05T23:58:35.045Z,12.20
